Time;durP1;ratioP1;P1;durP2;ratioP2;P2;SDS_P1;SDS_P2;PMS_P1;PMS_P2;Temp;Humidity;BMP_temperature;BMP_pressure;BME280_temperature;BME280_humidity;BME280_pressure;Samples;Min_cycle;Max_cycle;Signal;HPM_P1;HPM_P2
2023/05/13 00:01:23;;;;;;;19.83;8.45;;;11.00;99.90;;;;;;5069274;28;20076;-62
2023/05/13 00:03:49;;;;;;;23.52;8.05;;;11.00;99.90;;;;;;5069537;28;20470;-62
2023/05/13 00:06:16;;;;;;;19.70;9.27;;;11.00;99.90;;;;;;5069230;28;20040;-62
2023/05/13 00:08:43;;;;;;;17.70;7.18;;;11.00;99.90;;;;;;5068724;28;20741;-63
2023/05/13 00:11:10;;;;;;;17.40;8.25;;;11.00;99.90;;;;;;5069154;28;20131;-62
2023/05/13 00:13:37;;;;;;;18.58;9.73;;;11.00;99.90;;;;;;5068722;28;20052;-62
2023/05/13 00:16:03;;;;;;;18.40;7.80;;;11.00;99.90;;;;;;5069144;28;20056;-63
2023/05/13 00:18:30;;;;;;;14.23;6.75;;;10.90;99.90;;;;;;5068787;28;20143;-63
2023/05/13 00:20:57;;;;;;;17.88;6.97;;;10.90;99.90;;;;;;5069196;28;20052;-62
2023/05/13 00:23:24;;;;;;;15.65;7.18;;;10.90;99.90;;;;;;5068336;28;20132;-63
2023/05/13 00:25:51;;;;;;;17.33;6.88;;;10.90;99.90;;;;;;5068979;28;20044;-63
2023/05/13 00:28:18;;;;;;;15.73;7.80;;;10.90;99.90;;;;;;5068726;28;20062;-63
2023/05/13 00:30:45;;;;;;;15.73;6.72;;;10.90;99.90;;;;;;5069017;28;20159;-63
2023/05/13 00:33:12;;;;;;;18.52;7.03;;;10.90;99.90;;;;;;5068674;28;20076;-63
2023/05/13 00:35:38;;;;;;;19.38;7.22;;;10.90;99.90;;;;;;5068514;28;20079;-63
2023/05/13 00:38:05;;;;;;;16.67;7.22;;;10.90;99.90;;;;;;5068194;28;20733;-63
2023/05/13 00:40:33;;;;;;;15.65;6.70;;;10.90;99.90;;;;;;5068627;28;20052;-63
2023/05/13 00:43:00;;;;;;;19.58;6.90;;;11.00;99.90;;;;;;5068604;28;20040;-62
2023/05/13 00:45:26;;;;;;;22.10;8.30;;;11.00;99.90;;;;;;5068646;28;20052;-61
2023/05/13 00:47:53;;;;;;;15.77;7.90;;;11.00;99.90;;;;;;5068571;28;20137;-60
2023/05/13 00:50:20;;;;;;;25.33;7.97;;;11.00;99.90;;;;;;5068245;28;20059;-61
2023/05/13 00:52:48;;;;;;;11.65;6.47;;;11.00;99.90;;;;;;5068471;28;20045;-63
2023/05/13 00:55:15;;;;;;;22.95;8.98;;;10.90;99.90;;;;;;4723277;28;10000007;-62
2023/05/13 00:57:42;;;;;;;19.98;7.72;;;10.90;99.90;;;;;;5065810;28;20055;-62
2023/05/13 01:00:09;;;;;;;18.23;7.95;;;10.80;99.90;;;;;;5068221;28;20051;-63
2023/05/13 01:02:42;;;;;;;21.60;9.13;;;10.80;99.90;;;;;;5053202;28;20106;-62
2023/05/13 01:05:33;;;;;;;18.85;7.53;;;10.80;99.90;;;;;;5060735;28;20517;-62
2023/05/13 01:08:19;;;;;;;14.10;7.25;;;10.80;99.90;;;;;;5067802;28;20052;-61
2023/05/13 01:10:48;;;;;;;16.00;6.43;;;10.80;99.90;;;;;;5067629;28;20080;-62
2023/05/13 01:13:22;;;;;;;16.92;7.00;;;10.80;99.90;;;;;;5046639;28;20040;-62
2023/05/13 01:15:55;;;;;;;;;;;10.80;99.90;;;;;;5046798;28;20139;-62
2023/05/13 01:18:30;;;;;;;14.63;6.50;;;10.80;99.90;;;;;;5051279;28;19920;-62
2023/05/13 01:20:57;;;;;;;16.80;7.25;;;10.70;99.90;;;;;;5068090;28;20155;-62
2023/05/13 01:23:24;;;;;;;22.13;8.52;;;10.70;99.90;;;;;;5067326;28;20135;-61
2023/05/13 01:25:50;;;;;;;19.25;7.05;;;10.70;99.90;;;;;;5067569;28;20044;-62
2023/05/13 01:28:17;;;;;;;12.35;7.15;;;10.70;99.90;;;;;;5067181;28;20106;-61
2023/05/13 01:30:44;;;;;;;12.45;6.57;;;10.70;99.90;;;;;;5036713;28;20048;-61
2023/05/13 01:33:11;;;;;;;15.32;7.38;;;10.70;99.90;;;;;;5055710;28;20045;-61
2023/05/13 01:35:38;;;;;;;18.00;7.60;;;10.80;99.90;;;;;;5067057;28;20143;-62
2023/05/13 01:38:04;;;;;;;12.02;7.10;;;10.80;99.90;;;;;;5067694;28;20068;-61
2023/05/13 01:40:31;;;;;;;16.55;7.97;;;10.80;99.90;;;;;;5076239;28;20068;-61
2023/05/13 01:42:59;;;;;;;14.77;7.35;;;10.80;99.90;;;;;;5060895;28;20053;-62
2023/05/13 01:45:32;;;;;;;21.00;6.63;;;10.80;99.90;;;;;;5056521;28;20052;-62
2023/05/13 01:47:59;;;;;;;16.98;6.93;;;10.70;99.90;;;;;;5055111;28;20087;-62
2023/05/13 01:50:26;;;;;;;15.02;6.32;;;10.70;99.90;;;;;;5066728;28;20125;-62
2023/05/13 01:52:52;;;;;;;14.18;7.57;;;10.70;99.90;;;;;;5067649;28;20037;-62
2023/05/13 01:55:19;;;;;;;19.02;6.15;;;10.70;99.90;;;;;;5067328;28;20080;-62
2023/05/13 01:57:46;;;;;;;13.30;6.88;;;10.70;99.90;;;;;;5066794;28;20131;-62
2023/05/13 02:00:13;;;;;;;14.43;7.50;;;10.70;99.90;;;;;;5067127;28;20127;-62
2023/05/13 02:02:40;;;;;;;15.70;7.40;;;10.70;99.90;;;;;;5065129;28;20053;-62
2023/05/13 02:05:07;;;;;;;13.65;6.43;;;10.70;99.90;;;;;;5066617;28;20063;-62
2023/05/13 02:07:34;;;;;;;15.38;7.68;;;10.60;99.90;;;;;;5066637;28;20040;-62
2023/05/13 02:10:01;;;;;;;17.63;7.20;;;10.60;99.90;;;;;;5066046;28;20083;-61
2023/05/13 02:12:27;;;;;;;16.05;6.70;;;10.70;99.90;;;;;;5066534;28;20048;-62
2023/05/13 02:14:54;;;;;;;10.88;6.45;;;10.70;99.90;;;;;;5066930;28;20048;-62
2023/05/13 02:17:21;;;;;;;11.13;5.85;;;10.70;99.90;;;;;;5066847;28;20048;-62
2023/05/13 02:19:48;;;;;;;15.82;6.20;;;10.70;99.90;;;;;;5067096;28;20494;-61
2023/05/13 02:22:15;;;;;;;14.77;5.90;;;10.70;99.90;;;;;;5063333;28;20087;-62
2023/05/13 02:24:42;;;;;;;17.45;6.35;;;10.70;99.90;;;;;;5066427;28;20049;-62
2023/05/13 02:27:11;;;;;;;21.08;6.95;;;10.70;99.90;;;;;;5066396;28;20135;-62
2023/05/13 02:29:38;;;;;;;17.30;6.93;;;10.70;99.90;;;;;;5066843;28;20048;-62
2023/05/13 02:32:05;;;;;;;18.88;7.47;;;10.70;99.90;;;;;;5066744;28;20071;-62
2023/05/13 02:34:32;;;;;;;19.83;7.85;;;10.70;99.90;;;;;;5066837;28;20502;-62
2023/05/13 02:36:58;;;;;;;16.08;6.90;;;10.60;99.90;;;;;;5066639;28;20053;-62
2023/05/13 02:39:25;;;;;;;21.40;6.53;;;10.70;99.90;;;;;;5066733;28;20143;-61
2023/05/13 02:41:52;;;;;;;20.65;6.72;;;10.70;99.90;;;;;;5066965;28;20106;-61
2023/05/13 02:44:19;;;;;;;12.02;5.65;;;10.60;99.90;;;;;;5066382;28;20143;-62
2023/05/13 02:46:45;;;;;;;13.30;6.55;;;10.60;99.90;;;;;;5066384;28;20406;-62
2023/05/13 02:49:12;;;;;;;15.93;6.70;;;10.60;99.90;;;;;;5066312;28;20135;-62
2023/05/13 02:51:39;;;;;;;11.02;6.10;;;10.60;99.90;;;;;;5066268;28;20049;-61
2023/05/13 02:54:06;;;;;;;18.05;6.65;;;10.60;99.90;;;;;;5066710;28;20131;-62
2023/05/13 02:56:33;;;;;;;14.85;6.45;;;10.60;99.90;;;;;;5066356;28;20043;-62
2023/05/13 02:59:00;;;;;;;15.82;6.20;;;10.70;99.90;;;;;;5066750;28;20521;-61
2023/05/13 03:01:26;;;;;;;15.18;6.25;;;10.60;99.90;;;;;;5066200;28;20070;-62
2023/05/13 03:03:53;;;;;;;16.70;7.18;;;10.60;99.90;;;;;;5066353;28;20109;-62
2023/05/13 03:06:20;;;;;;;12.27;6.93;;;10.70;99.90;;;;;;5066123;28;20045;-61
2023/05/13 03:08:46;;;;;;;12.73;6.80;;;10.70;99.90;;;;;;5066212;28;20052;-63
2023/05/13 03:11:13;;;;;;;15.48;7.20;;;10.70;99.90;;;;;;5066639;28;20509;-62
2023/05/13 03:13:40;;;;;;;10.85;6.50;;;10.60;99.90;;;;;;5054177;28;20067;-62
2023/05/13 03:16:07;;;;;;;17.45;7.68;;;10.60;99.90;;;;;;5068874;28;20118;-62
2023/05/13 03:18:34;;;;;;;18.92;7.70;;;10.60;99.90;;;;;;5069591;28;20106;-62
2023/05/13 03:21:01;;;;;;;12.48;6.95;;;10.60;99.90;;;;;;5070375;28;20044;-62
2023/05/13 03:23:28;;;;;;;20.42;7.15;;;10.60;99.90;;;;;;5069264;28;20045;-60
2023/05/13 03:25:55;;;;;;;20.73;7.47;;;10.60;99.90;;;;;;5070184;28;20072;-62
2023/05/13 03:28:22;;;;;;;18.35;7.53;;;10.60;99.90;;;;;;5069662;28;20045;-61
2023/05/13 03:30:49;;;;;;;11.95;7.20;;;10.60;99.90;;;;;;5070005;28;20068;-61
2023/05/13 03:33:16;;;;;;;14.93;6.95;;;10.60;99.90;;;;;;5071171;28;20032;-62
2023/05/13 03:35:44;;;;;;;17.58;7.80;;;10.60;99.90;;;;;;5073443;28;20499;-62
2023/05/13 03:38:11;;;;;;;19.75;7.60;;;10.60;99.90;;;;;;5070525;28;20044;-62
2023/05/13 03:40:37;;;;;;;14.32;6.90;;;10.50;99.90;;;;;;5070438;28;20049;-62
2023/05/13 03:43:04;;;;;;;15.85;6.95;;;10.50;99.90;;;;;;5070056;28;20393;-61
2023/05/13 03:45:31;;;;;;;13.07;5.90;;;10.50;99.90;;;;;;5069532;28;20062;-62
2023/05/13 03:47:57;;;;;;;17.60;6.88;;;10.50;99.90;;;;;;5069391;28;20139;-61
2023/05/13 03:50:24;;;;;;;10.15;6.18;;;10.50;99.90;;;;;;5069274;28;20052;-61
2023/05/13 03:52:51;;;;;;;15.93;7.28;;;10.50;99.90;;;;;;5057685;28;20040;-62
2023/05/13 03:55:18;;;;;;;19.33;7.20;;;10.50;99.90;;;;;;5069538;28;20423;-62
2023/05/13 03:57:46;;;;;;;18.50;6.60;;;10.50;99.90;;;;;;5071204;28;20131;-62
2023/05/13 04:00:13;;;;;;;19.77;6.60;;;10.50;99.90;;;;;;5069053;28;20139;-62
2023/05/13 04:02:40;;;;;;;15.80;6.53;;;10.50;99.90;;;;;;5069045;28;20080;-62
2023/05/13 04:05:08;;;;;;;10.80;6.70;;;10.50;99.90;;;;;;5066804;28;20072;-62
2023/05/13 04:07:35;;;;;;;13.75;7.10;;;10.50;99.90;;;;;;5075143;28;20514;-63
2023/05/13 04:10:01;;;;;;;12.88;6.75;;;10.50;99.90;;;;;;5073846;28;20147;-62
2023/05/13 04:12:29;;;;;;;15.13;7.13;;;10.50;99.90;;;;;;5069071;28;20044;-62
2023/05/13 04:14:56;;;;;;;14.07;7.00;;;10.50;99.90;;;;;;5069348;28;20044;-66
2023/05/13 04:17:23;;;;;;;13.05;6.75;;;10.50;99.90;;;;;;5069395;28;20143;-63
2023/05/13 04:19:53;;;;;;;13.73;7.43;;;10.50;99.90;;;;;;5069061;28;20542;-62
2023/05/13 04:22:20;;;;;;;14.25;7.22;;;10.40;99.90;;;;;;5068830;28;20048;-62
2023/05/13 04:24:50;;;;;;;15.60;7.30;;;10.40;99.90;;;;;;5069002;28;20746;-62
2023/05/13 04:27:17;;;;;;;15.00;8.35;;;10.40;99.90;;;;;;5068446;28;20110;-62
2023/05/13 04:29:44;;;;;;;14.32;7.82;;;10.50;99.90;;;;;;5068237;28;20044;-62
2023/05/13 04:32:14;;;;;;;17.02;7.03;;;10.50;99.90;;;;;;5055025;28;20072;-62
2023/05/13 04:34:41;;;;;;;16.13;7.28;;;10.50;99.90;;;;;;5070412;28;20074;-62
2023/05/13 04:37:08;;;;;;;20.70;7.25;;;10.50;99.90;;;;;;5068602;28;20055;-62
2023/05/13 04:39:35;;;;;;;13.55;7.25;;;10.50;99.90;;;;;;5068332;28;20087;-63
2023/05/13 04:42:01;;;;;;;16.23;7.68;;;10.50;99.90;;;;;;5068453;28;20044;-62
2023/05/13 04:44:28;;;;;;;13.45;7.47;;;10.50;99.90;;;;;;5068441;28;20506;-62
2023/05/13 04:46:55;;;;;;;25.95;8.25;;;10.50;99.90;;;;;;5067391;28;20051;-62
2023/05/13 04:49:22;;;;;;;17.20;7.97;;;10.50;99.90;;;;;;5069305;28;20049;-62
2023/05/13 04:51:49;;;;;;;14.40;7.18;;;10.50;99.90;;;;;;5062203;28;20044;-63
2023/05/13 04:54:16;;;;;;;15.27;7.53;;;10.50;99.90;;;;;;5057596;28;20042;-62
2023/05/13 04:56:43;;;;;;;18.23;7.18;;;10.50;99.90;;;;;;5067620;28;20052;-62
2023/05/13 04:59:09;;;;;;;12.80;7.13;;;10.50;99.90;;;;;;5068471;28;20080;-62
2023/05/13 05:01:36;;;;;;;16.00;7.13;;;10.50;99.90;;;;;;5067740;28;20132;-63
2023/05/13 05:04:04;;;;;;;15.73;7.22;;;10.50;99.90;;;;;;5067885;28;20458;-62
2023/05/13 05:06:31;;;;;;;11.35;6.60;;;10.50;99.90;;;;;;5068051;28;20118;-62
2023/05/13 05:08:58;;;;;;;10.65;7.07;;;10.40;99.90;;;;;;5067865;28;20574;-63
2023/05/13 05:11:25;;;;;;;16.67;6.95;;;10.40;99.90;;;;;;5067725;28;20138;-63
2023/05/13 05:13:51;;;;;;;14.50;7.30;;;10.40;99.90;;;;;;5070917;28;20079;-63
2023/05/13 05:16:18;;;;;;;13.48;8.05;;;10.40;99.90;;;;;;5055015;28;20051;-62
2023/05/13 05:18:45;;;;;;;10.45;5.93;;;10.40;99.90;;;;;;5059749;28;20062;-63
2023/05/13 05:21:12;;;;;;;16.30;6.68;;;10.40;99.90;;;;;;5063461;28;20072;-63
2023/05/13 05:23:38;;;;;;;16.27;6.68;;;10.40;99.90;;;;;;5067163;28;20053;-63
2023/05/13 05:26:05;;;;;;;10.48;6.45;;;10.40;99.90;;;;;;5054272;28;20079;-62
2023/05/13 05:28:38;;;;;;;17.42;6.63;;;10.50;99.90;;;;;;5067336;28;20057;-61
2023/05/13 05:31:05;;;;;;;12.65;6.72;;;10.40;99.90;;;;;;5062539;28;20041;-62
2023/05/13 05:33:32;;;;;;;15.25;6.80;;;10.50;99.90;;;;;;5067097;28;20070;-62
2023/05/13 05:35:59;;;;;;;15.27;7.43;;;10.50;99.90;;;;;;5074943;28;20044;-61
2023/05/13 05:38:26;;;;;;;12.85;6.70;;;10.50;99.90;;;;;;5054700;28;20487;-61
2023/05/13 05:40:53;;;;;;;13.52;6.88;;;10.50;99.90;;;;;;5067797;28;20080;-61
2023/05/13 05:43:19;;;;;;;16.77;6.47;;;10.50;99.90;;;;;;5067154;28;20055;-61
2023/05/13 05:45:46;;;;;;;11.57;6.63;;;10.50;99.90;;;;;;5067721;28;20556;-61
2023/05/13 05:48:13;;;;;;;18.65;7.03;;;10.60;99.90;;;;;;5067374;28;20047;-61
2023/05/13 05:50:40;;;;;;;15.52;6.65;;;10.60;99.90;;;;;;5060649;28;20135;-62
2023/05/13 05:53:07;;;;;;;13.05;7.10;;;10.60;99.90;;;;;;5067236;28;20036;-62
2023/05/13 05:55:33;;;;;;;11.63;7.60;;;10.70;99.90;;;;;;5066860;28;20425;-62
2023/05/13 05:58:04;;;;;;;10.35;6.03;;;10.70;99.90;;;;;;5067244;28;20040;-61
2023/05/13 06:00:32;;;;;;;19.20;7.18;;;10.60;99.90;;;;;;5066719;28;20121;-61
2023/05/13 06:02:58;;;;;;;14.05;7.03;;;10.70;99.90;;;;;;5067166;28;20079;-62
2023/05/13 06:05:25;;;;;;;16.52;6.70;;;10.70;99.90;;;;;;5066634;28;20143;-62
2023/05/13 06:07:52;;;;;;;20.90;7.10;;;10.70;99.90;;;;;;5067199;28;20501;-63
2023/05/13 06:10:19;;;;;;;13.00;7.18;;;10.70;99.90;;;;;;5066745;28;20386;-61
2023/05/13 06:12:46;;;;;;;13.90;7.30;;;10.70;99.90;;;;;;5066694;28;20040;-62
2023/05/13 06:15:13;;;;;;;15.68;7.80;;;10.70;99.90;;;;;;5066967;28;20041;-62
2023/05/13 06:17:40;;;;;;;13.18;7.30;;;10.70;99.90;;;;;;5070511;28;20135;-61
2023/05/13 06:20:07;;;;;;;16.92;7.05;;;10.60;99.90;;;;;;5066825;28;20052;-62
2023/05/13 06:22:33;;;;;;;18.58;8.00;;;10.60;99.90;;;;;;5061533;28;20090;-62
2023/05/13 06:25:00;;;;;;;14.30;8.10;;;10.60;99.90;;;;;;5067494;28;20040;-62
2023/05/13 06:27:27;;;;;;;23.25;8.18;;;10.50;99.90;;;;;;5075926;28;20139;-61
2023/05/13 06:29:54;;;;;;;10.32;6.75;;;10.60;99.90;;;;;;5066480;28;20120;-61
2023/05/13 06:32:20;;;;;;;18.08;7.95;;;10.60;99.90;;;;;;5066970;28;20045;-62
2023/05/13 06:34:48;;;;;;;17.70;7.45;;;10.60;99.90;;;;;;5066317;28;20037;-62
2023/05/13 06:37:15;;;;;;;14.77;8.07;;;10.70;99.90;;;;;;5066854;28;20048;-62
2023/05/13 06:39:41;;;;;;;14.95;7.95;;;10.70;99.90;;;;;;5066417;28;20048;-62
2023/05/13 06:42:08;;;;;;;19.05;7.50;;;10.70;99.90;;;;;;5066802;28;20052;-62
2023/05/13 06:44:36;;;;;;;23.50;8.80;;;10.70;99.90;;;;;;5066848;28;20557;-61
2023/05/13 06:47:04;;;;;;;18.15;7.13;;;10.70;99.90;;;;;;5066562;28;20049;-61
2023/05/13 06:49:34;;;;;;;16.15;8.10;;;10.70;99.90;;;;;;5067271;28;20049;-61
2023/05/13 06:52:01;;;;;;;17.92;7.35;;;10.70;99.90;;;;;;5065052;28;20083;-62
2023/05/13 06:54:27;;;;;;;10.48;6.00;;;10.70;99.90;;;;;;5070069;28;20123;-61
2023/05/13 06:56:54;;;;;;;17.55;7.72;;;10.60;99.90;;;;;;5070707;28;20135;-61
2023/05/13 06:59:21;;;;;;;14.88;8.23;;;10.60;99.90;;;;;;5056482;28;20131;-62
2023/05/13 07:01:48;;;;;;;13.65;7.13;;;10.70;99.90;;;;;;5070407;28;20083;-62
2023/05/13 07:04:15;;;;;;;13.52;7.80;;;10.80;99.90;;;;;;5078648;28;20048;-62
2023/05/13 07:06:42;;;;;;;11.35;7.18;;;10.80;99.90;;;;;;5077468;28;20056;-62
2023/05/13 07:09:08;;;;;;;17.27;7.28;;;10.80;99.90;;;;;;5076999;28;20062;-62
2023/05/13 07:11:36;;;;;;;18.23;7.55;;;10.80;99.90;;;;;;5069786;28;20560;-61
2023/05/13 07:14:02;;;;;;;11.45;7.13;;;10.80;99.90;;;;;;5065445;28;20491;-61
2023/05/13 07:16:29;;;;;;;10.77;6.60;;;10.80;99.90;;;;;;5069802;28;20076;-61
2023/05/13 07:18:56;;;;;;;11.10;6.75;;;10.90;99.90;;;;;;5070413;28;20090;-62
2023/05/13 07:21:23;;;;;;;11.38;5.93;;;10.90;99.90;;;;;;5069759;28;20052;-62
2023/05/13 07:23:49;;;;;;;13.43;7.13;;;10.90;99.90;;;;;;5070227;28;20123;-61
2023/05/13 07:26:16;;;;;;;16.15;6.78;;;10.90;99.90;;;;;;5074735;28;20128;-62
2023/05/13 07:28:44;;;;;;;14.95;6.90;;;10.90;99.90;;;;;;5070014;28;20106;-64
2023/05/13 07:31:11;;;;;;;12.88;7.53;;;10.90;99.90;;;;;;5069855;28;20045;-62
2023/05/13 07:33:38;;;;;;;11.35;6.50;;;10.90;99.90;;;;;;5069625;28;20113;-61
2023/05/13 07:36:05;;;;;;;10.73;6.05;;;10.90;99.90;;;;;;5070051;28;20049;-61
2023/05/13 07:38:32;;;;;;;18.67;8.05;;;10.90;99.90;;;;;;5069456;28;20084;-61
2023/05/13 07:40:58;;;;;;;15.47;7.53;;;10.90;99.90;;;;;;4718038;28;9999815;-62
2023/05/13 07:43:26;;;;;;;16.88;7.35;;;10.90;99.90;;;;;;5066591;28;20073;-62
2023/05/13 07:45:54;;;;;;;15.05;6.97;;;11.00;99.90;;;;;;5067686;28;20036;-62
2023/05/13 07:48:20;;;;;;;17.77;7.03;;;11.00;99.90;;;;;;5067409;28;20091;-61
2023/05/13 07:50:47;;;;;;;13.27;7.05;;;11.00;99.90;;;;;;5067680;28;20131;-61
2023/05/13 07:53:14;;;;;;;13.88;7.20;;;11.10;99.90;;;;;;5056221;28;20045;-62
2023/05/13 07:55:44;;;;;;;20.88;6.65;;;11.10;99.90;;;;;;5067442;28;20048;-62
2023/05/13 07:58:11;;;;;;;21.88;6.57;;;11.10;99.90;;;;;;5065578;28;20606;-61
2023/05/13 08:00:38;;;;;;;12.40;6.07;;;11.10;99.90;;;;;;5062795;28;20075;-62
2023/05/13 08:03:04;;;;;;;18.63;6.75;;;11.10;99.90;;;;;;5056072;28;20477;-62
2023/05/13 08:05:31;;;;;;;17.52;6.97;;;11.10;99.90;;;;;;5065660;28;20096;-61
2023/05/13 08:07:58;;;;;;;11.35;6.18;;;11.10;99.90;;;;;;5066426;28;20049;-61
2023/05/13 08:10:25;;;;;;;13.48;7.20;;;11.10;99.90;;;;;;5060844;28;20044;-61
2023/05/13 08:12:56;;;;;;;12.63;6.72;;;11.10;99.90;;;;;;5067730;28;20384;-62
2023/05/13 08:15:24;;;;;;;14.00;6.75;;;11.10;99.90;;;;;;5067669;28;20498;-64
2023/05/13 08:17:52;;;;;;;18.85;7.20;;;11.20;99.90;;;;;;5068902;28;20469;-62
2023/05/13 08:20:20;;;;;;;18.27;7.07;;;11.20;99.90;;;;;;5068687;28;20044;-61
2023/05/13 08:22:46;;;;;;;14.20;6.97;;;11.20;99.90;;;;;;5055017;28;20080;-62
2023/05/13 08:25:14;;;;;;;11.95;6.68;;;11.10;99.90;;;;;;5066202;28;20109;-61
2023/05/13 08:27:41;;;;;;;10.13;5.45;;;11.20;99.90;;;;;;5052681;28;20049;-61
2023/05/13 08:30:08;;;;;;;9.85;6.30;;;11.30;99.90;;;;;;5065991;28;20037;-62
2023/05/13 08:32:35;;;;;;;13.48;6.72;;;11.40;99.90;;;;;;5065853;28;20103;-62
2023/05/13 08:35:02;;;;;;;14.88;6.22;;;11.50;99.90;;;;;;5065664;28;20507;-63
2023/05/13 08:37:29;;;;;;;15.25;7.88;;;11.50;99.90;;;;;;5065309;28;20080;-62
2023/05/13 08:39:58;;;;;;;12.57;7.40;;;11.50;99.90;;;;;;5064798;28;20119;-61
2023/05/13 08:42:25;;;;;;;21.58;7.65;;;11.60;99.90;;;;;;5065437;28;20048;-61
2023/05/13 08:44:52;;;;;;;11.32;7.30;;;11.60;99.90;;;;;;5057245;28;20074;-61
2023/05/13 08:47:49;;;;;;;12.73;6.38;;;11.60;99.90;;;;;;5055652;28;20048;-61
2023/05/13 08:50:16;;;;;;;11.98;6.75;;;11.70;99.90;;;;;;5065464;28;20048;-62
2023/05/13 08:52:42;;;;;;;11.90;6.95;;;11.80;99.90;;;;;;5065262;28;20063;-62
2023/05/13 08:55:09;;;;;;;12.48;7.40;;;11.80;99.90;;;;;;5064866;28;20130;-62
2023/05/13 08:57:37;;;;;;;15.15;7.40;;;11.90;99.90;;;;;;5065105;28;20052;-62
2023/05/13 09:00:04;;;;;;;11.95;6.72;;;11.90;99.90;;;;;;5063275;28;20563;-62
2023/05/13 09:02:31;;;;;;;14.43;5.88;;;12.00;99.90;;;;;;5064801;28;20070;-64
2023/05/13 09:05:04;;;;;;;14.27;6.85;;;12.00;99.90;;;;;;5055555;28;20044;-61
2023/05/13 09:07:31;;;;;;;12.55;7.38;;;12.00;99.90;;;;;;5050227;28;20053;-62
2023/05/13 09:09:58;;;;;;;14.85;6.50;;;12.10;99.90;;;;;;5064992;28;20053;-61
2023/05/13 09:12:44;;;;;;;11.50;7.00;;;12.10;99.90;;;;;;5064542;28;20055;-62
2023/05/13 09:15:12;;;;;;;11.52;6.28;;;12.10;99.90;;;;;;5065005;28;20127;-61
2023/05/13 09:17:44;;;;;;;10.77;6.15;;;12.10;99.90;;;;;;5065067;28;20230;-61
2023/05/13 09:20:12;;;;;;;9.75;6.40;;;12.30;99.90;;;;;;5058637;28;20049;-61
2023/05/13 09:22:59;;;;;;;10.15;6.18;;;12.30;99.90;;;;;;5050303;28;20040;-61
2023/05/13 09:25:26;;;;;;;9.73;7.22;;;12.30;99.90;;;;;;5063502;28;20058;-62
2023/05/13 09:27:56;;;;;;;17.33;6.43;;;12.30;99.90;;;;;;5064779;28;20040;-61
2023/05/13 09:30:27;;;;;;;13.18;6.72;;;12.30;99.90;;;;;;5064720;28;20139;-61
2023/05/13 09:33:13;;;;;;;8.57;6.13;;;12.30;99.90;;;;;;5064712;28;20075;-62
2023/05/13 09:35:44;;;;;;;13.35;6.35;;;12.40;99.90;;;;;;5055779;28;20048;-63
2023/05/13 09:38:18;;;;;;;11.07;7.40;;;12.40;99.90;;;;;;5054326;28;20037;-63
2023/05/13 09:40:56;;;;;;;12.30;7.00;;;12.50;99.90;;;;;;5061795;28;20139;-63
2023/05/13 09:43:24;;;;;;;13.70;6.50;;;12.50;99.90;;;;;;5066737;28;20045;-62
2023/05/13 09:45:54;;;;;;;12.82;6.45;;;12.60;99.90;;;;;;5067186;28;20587;-62
2023/05/13 09:48:25;;;;;;;13.63;7.03;;;12.70;99.90;;;;;;5045057;28;20927;-62
2023/05/13 09:50:52;;;;;;;19.25;7.32;;;12.80;99.90;;;;;;5068451;28;20044;-62
2023/05/13 09:53:22;;;;;;;11.52;5.82;;;13.00;99.90;;;;;;5066001;28;20074;-63
2023/05/13 09:55:52;;;;;;;9.38;5.97;;;13.10;99.90;;;;;;5048354;28;20037;-62
2023/05/13 09:58:20;;;;;;;15.88;5.90;;;13.10;99.90;;;;;;5064756;28;20083;-63
2023/05/13 10:00:47;;;;;;;12.75;7.40;;;13.20;99.90;;;;;;5064553;28;20618;-62
2023/05/13 10:03:14;;;;;;;11.40;6.05;;;13.30;99.90;;;;;;5055131;28;20053;-62
2023/05/13 10:05:41;;;;;;;11.98;5.95;;;13.30;99.90;;;;;;5058454;28;20058;-62
2023/05/13 10:08:09;;;;;;;13.75;6.60;;;13.20;99.90;;;;;;5063154;28;20098;-62
2023/05/13 10:10:36;;;;;;;14.73;7.03;;;13.20;99.90;;;;;;5057156;28;20123;-62
2023/05/13 10:13:13;;;;;;;14.27;7.53;;;13.30;99.90;;;;;;5031881;28;20076;-61
2023/05/13 10:15:50;;;;;;;12.70;6.03;;;13.30;99.90;;;;;;5051549;28;20610;-63
2023/05/13 10:18:17;;;;;;;14.13;6.45;;;13.40;99.90;;;;;;5063312;28;20052;-63
2023/05/13 10:20:44;;;;;;;12.20;6.72;;;13.40;99.90;;;;;;5056942;28;20088;-63
2023/05/13 10:23:11;;;;;;;10.52;6.25;;;13.40;99.90;;;;;;5063319;28;20410;-60
2023/05/13 10:25:38;;;;;;;13.10;6.70;;;13.50;99.90;;;;;;5065235;28;20553;-61
2023/05/13 10:28:05;;;;;;;10.75;6.50;;;13.60;99.90;;;;;;5058143;28;20041;-61
2023/05/13 10:30:34;;;;;;;14.13;6.93;;;13.60;99.90;;;;;;5074689;28;20101;-61
2023/05/13 10:33:01;;;;;;;14.90;7.03;;;13.70;99.90;;;;;;5057765;28;20078;-62
2023/05/13 10:35:31;;;;;;;10.43;6.75;;;13.90;99.90;;;;;;5056346;28;20044;-63
2023/05/13 10:38:10;;;;;;;10.60;7.10;;;14.00;99.90;;;;;;5058181;28;20136;-62
2023/05/13 10:40:49;;;;;;;10.85;6.70;;;14.10;99.90;;;;;;5036180;28;20040;-62
2023/05/13 10:43:28;;;;;;;12.25;6.40;;;14.10;99.90;;;;;;5073782;28;20058;-62
2023/05/13 10:46:04;;;;;;;12.35;6.38;;;14.10;99.90;;;;;;5074830;28;20055;-61
2023/05/13 10:48:39;;;;;;;11.43;6.35;;;14.20;99.90;;;;;;5053849;28;20044;-62
2023/05/13 10:51:06;;;;;;;19.40;6.93;;;14.20;99.90;;;;;;5065512;28;20045;-61
2023/05/13 10:53:50;;;;;;;18.55;6.72;;;14.30;99.90;;;;;;5062881;28;20880;-63
2023/05/13 10:56:21;;;;;;;17.38;6.28;;;14.30;99.90;;;;;;5057234;28;20143;-62
2023/05/13 10:59:01;;;;;;;14.00;6.53;;;14.40;99.90;;;;;;5063396;28;20888;-62
2023/05/13 11:01:29;;;;;;;10.60;6.13;;;14.40;99.90;;;;;;5073792;28;20055;-62
2023/05/13 11:03:58;;;;;;;17.50;6.72;;;14.60;99.90;;;;;;5063569;28;20053;-62
2023/05/13 11:06:29;;;;;;;15.50;7.07;;;14.70;99.90;;;;;;5063232;28;20094;-62
2023/05/13 11:08:58;;;;;;;11.50;6.13;;;14.80;99.90;;;;;;5069026;28;20067;-62
2023/05/13 11:11:28;;;;;;;14.15;7.20;;;14.80;99.90;;;;;;5063158;28;20525;-63
2023/05/13 11:14:04;;;;;;;11.70;5.90;;;14.90;99.90;;;;;;5063607;28;20055;-62
2023/05/13 11:16:34;;;;;;;11.57;6.72;;;14.90;99.90;;;;;;5060093;28;20045;-62
2023/05/13 11:19:02;;;;;;;11.30;6.20;;;14.80;99.90;;;;;;5067231;28;20136;-62
2023/05/13 11:21:34;;;;;;;14.43;6.78;;;14.80;99.90;;;;;;5063125;28;20049;-63
2023/05/13 11:24:04;;;;;;;14.82;5.90;;;14.90;99.90;;;;;;5063406;28;20051;-62
2023/05/13 11:26:55;;;;;;;11.00;6.72;;;14.90;99.90;;;;;;5057825;28;20056;-62
2023/05/13 11:29:28;;;;;;;10.65;5.90;;;15.00;99.90;;;;;;5063505;28;20052;-62
2023/05/13 11:31:57;;;;;;;9.88;5.80;;;14.90;99.90;;;;;;5063196;28;20101;-62
2023/05/13 11:34:26;;;;;;;16.60;6.00;;;14.90;99.90;;;;;;5063368;28;20149;-62
2023/05/13 11:36:56;;;;;;;15.38;6.18;;;14.90;99.90;;;;;;5050968;28;20052;-61
2023/05/13 11:39:25;;;;;;;11.27;6.63;;;14.90;99.90;;;;;;5067078;28;20048;-61
2023/05/13 11:41:52;;;;;;;9.80;5.97;;;14.90;99.90;;;;;;5066802;28;20060;-63
2023/05/13 11:44:20;;;;;;;13.70;6.70;;;15.00;99.90;;;;;;5067076;28;20499;-62
2023/05/13 11:46:54;;;;;;;12.45;7.70;;;15.00;99.90;;;;;;5064040;28;20083;-62
2023/05/13 11:49:40;;;;;;;11.75;7.07;;;15.20;99.90;;;;;;5076028;28;20060;-61
2023/05/13 11:52:10;;;;;;;13.20;7.28;;;15.30;99.90;;;;;;5073356;28;20041;-61
2023/05/13 11:54:48;;;;;;;14.27;7.35;;;15.40;99.90;;;;;;5076368;28;20483;-62
2023/05/13 11:57:26;;;;;;;14.52;7.30;;;15.40;99.90;;;;;;5069845;28;20132;-62
2023/05/13 12:00:03;;;;;;;15.25;7.38;;;15.40;99.90;;;;;;5074521;28;20044;-62
2023/05/13 12:02:33;;;;;;;12.82;7.45;;;15.40;99.90;;;;;;5067841;28;20052;-61
2023/05/13 12:05:03;;;;;;;22.30;7.68;;;15.40;99.90;;;;;;5069356;28;20053;-62
2023/05/13 12:07:30;;;;;;;13.20;7.10;;;15.50;99.90;;;;;;5066456;28;20056;-61
2023/05/13 12:09:58;;;;;;;12.77;7.22;;;15.60;99.90;;;;;;5051294;28;20048;-61
2023/05/13 12:12:25;;;;;;;11.90;6.10;;;15.70;99.90;;;;;;5048825;28;20049;-63
2023/05/13 12:14:54;;;;;;;18.13;7.20;;;15.70;99.90;;;;;;5066533;28;20044;-61
2023/05/13 12:17:21;;;;;;;13.73;7.00;;;15.70;99.90;;;;;;5068779;28;20578;-61
2023/05/13 12:20:04;;;;;;;11.10;6.75;;;15.70;99.90;;;;;;5053314;28;20078;-61
2023/05/13 12:22:32;;;;;;;14.52;7.35;;;15.60;99.90;;;;;;5058969;28;20136;-61
2023/05/13 12:25:00;;;;;;;17.17;7.63;;;15.70;99.90;;;;;;5069941;28;20055;-61
2023/05/13 12:27:27;;;;;;;21.08;8.15;;;15.80;99.90;;;;;;5068946;28;20044;-61
2023/05/13 12:29:54;;;;;;;16.77;7.65;;;15.80;99.90;;;;;;5072231;28;20051;-61
2023/05/13 12:32:23;;;;;;;13.85;7.90;;;16.00;99.90;;;;;;5067618;28;20090;-61
2023/05/13 12:34:50;;;;;;;13.18;6.88;;;16.10;99.90;;;;;;5048025;28;20057;-61
2023/05/13 12:37:17;;;;;;;15.07;8.43;;;16.30;99.90;;;;;;5057754;28;20586;-63
2023/05/13 12:39:43;;;;;;;18.05;7.50;;;16.30;99.90;;;;;;5065946;28;20044;-62
2023/05/13 12:42:17;;;;;;;14.38;6.85;;;16.30;99.90;;;;;;5066477;28;20071;-61
2023/05/13 12:44:44;;;;;;;12.75;7.78;;;16.30;99.90;;;;;;5066142;28;20064;-62